Time;durP1;ratioP1;P1;durP2;ratioP2;P2;SDS_P1;SDS_P2;PMS_P1;PMS_P2;Temp;Humidity;BMP_temperature;BMP_pressure;BME280_temperature;BME280_humidity;BME280_pressure;Samples;Min_cycle;Max_cycle;Signal;HPM_P1;HPM_P2
2022/06/03 00:01:19;;;;;;;;;;;10.80;99.90;;;;;;5054159;28;20083;-65
2022/06/03 00:04:22;;;;;;;7.43;5.05;;;10.70;99.90;;;;;;5052941;28;20018;-65
2022/06/03 00:07:12;;;;;;;8.00;4.97;;;10.70;99.90;;;;;;5052712;28;20559;-65
2022/06/03 00:09:53;;;;;;;7.85;5.63;;;10.80;99.90;;;;;;5052873;28;20037;-65
2022/06/03 00:12:39;;;;;;;9.07;6.13;;;10.70;99.90;;;;;;5053303;28;20037;-65
2022/06/03 00:15:30;;;;;;;10.13;4.70;;;10.70;99.90;;;;;;5053587;28;20047;-65
2022/06/03 00:18:17;;;;;;;10.98;6.00;;;10.70;99.90;;;;;;5034729;28;20040;-65
2022/06/03 00:20:54;;;;;;;7.50;5.03;;;10.70;99.90;;;;;;5052324;28;20056;-65
2022/06/03 00:23:40;;;;;;;9.60;5.72;;;10.70;99.90;;;;;;5053915;28;20041;-65
2022/06/03 00:26:25;;;;;;;10.15;5.50;;;10.60;99.90;;;;;;5051386;28;20254;-66
2022/06/03 00:29:09;;;;;;;7.78;5.15;;;10.70;99.90;;;;;;5051789;28;20486;-65
2022/06/03 00:32:20;;;;;;;9.40;5.85;;;10.60;99.90;;;;;;5051605;28;20489;-65
2022/06/03 00:34:49;;;;;;;9.60;5.40;;;;;;;;;;5021087;28;20545;-65
2022/06/03 00:37:31;;;;;;;9.77;5.82;;;;;;;;;;5035747;28;20055;-65
2022/06/03 00:40:07;;;;;;;11.07;6.05;;;;;;;;;;5034602;28;20045;-65
2022/06/03 00:42:44;;;;;;;10.07;5.32;;;;;;;;;;5035381;28;20051;-65
2022/06/03 00:45:19;;;;;;;9.30;5.70;;;10.70;99.90;;;;;;5051989;28;20090;-65
2022/06/03 00:48:03;;;;;;;8.75;5.38;;;10.60;99.90;;;;;;5051345;28;20163;-65
2022/06/03 00:50:48;;;;;;;8.73;5.95;;;10.70;99.90;;;;;;5052236;28;20390;-65
2022/06/03 00:53:17;;;;;;;9.60;5.80;;;;;;;;;;5052184;28;20048;-65
2022/06/03 00:56:03;;;;;;;10.95;5.97;;;10.50;99.90;;;;;;5051428;28;20072;-65
2022/06/03 00:58:38;;;;;;;11.45;6.97;;;10.60;99.90;;;;;;5041502;28;20136;-65
2022/06/03 01:01:07;;;;;;;9.50;5.90;;;10.40;99.90;;;;;;5051963;28;20072;-65
2022/06/03 01:03:50;;;;;;;13.55;6.97;;;10.50;99.90;;;;;;5053117;28;20083;-65
2022/06/03 01:06:27;;;;;;;12.88;7.35;;;10.50;99.90;;;;;;5051456;28;20036;-66
2022/06/03 01:09:42;;;;;;;11.68;7.20;;;10.50;99.90;;;;;;5050168;28;20037;-65
2022/06/03 01:12:19;;;;;;;11.52;6.95;;;10.50;99.90;;;;;;5010750;28;20450;-65
2022/06/03 01:15:09;;;;;;;9.93;6.15;;;10.40;99.90;;;;;;5043057;28;20371;-65
2022/06/03 01:17:53;;;;;;;10.35;5.95;;;10.30;99.90;;;;;;5051854;28;20094;-65
2022/06/03 01:20:56;;;;;;;12.77;6.55;;;10.40;99.90;;;;;;5051413;28;20061;-65
2022/06/03 01:23:40;;;;;;;12.07;6.03;;;10.30;99.90;;;;;;5052808;28;20076;-65
2022/06/03 01:26:16;;;;;;;8.27;6.25;;;10.30;99.90;;;;;;5050777;28;20047;-65
2022/06/03 01:29:06;;;;;;;9.82;6.63;;;10.30;99.90;;;;;;5050545;28;20527;-65
2022/06/03 01:31:53;;;;;;;9.45;6.85;;;10.40;99.90;;;;;;5052758;28;20040;-65
2022/06/03 01:34:50;;;;;;;9.95;6.57;;;10.40;99.90;;;;;;5052543;28;20041;-65
2022/06/03 01:37:31;;;;;;;8.88;6.55;;;;;;;;;;5051478;28;20490;-65
2022/06/03 01:40:13;;;;;;;9.07;6.35;;;10.20;99.90;;;;;;5050767;28;20517;-65
2022/06/03 01:43:03;;;;;;;10.50;6.65;;;10.10;99.90;;;;;;5051699;28;20448;-65
2022/06/03 01:45:32;;;;;;;9.95;6.72;;;10.10;99.90;;;;;;5051044;28;20048;-65
2022/06/03 01:48:03;;;;;;;10.98;6.85;;;10.00;99.90;;;;;;5051661;28;20485;-65
2022/06/03 01:50:53;;;;;;;11.10;7.20;;;10.00;99.90;;;;;;5050444;28;20037;-65
2022/06/03 01:53:52;;;;;;;9.23;6.47;;;10.00;99.90;;;;;;5052442;28;20051;-65
2022/06/03 01:56:42;;;;;;;10.77;6.70;;;10.00;99.90;;;;;;5033433;28;20088;-65
2022/06/03 01:59:10;;;;;;;9.73;6.88;;;10.00;99.90;;;;;;5034100;28;20040;-65
2022/06/03 02:01:45;;;;;;;10.32;6.80;;;10.10;99.90;;;;;;5052252;28;20076;-65
2022/06/03 02:04:42;;;;;;;8.35;6.60;;;10.00;99.90;;;;;;5049789;28;20041;-65
2022/06/03 02:07:11;;;;;;;9.52;5.93;;;10.10;99.90;;;;;;5051660;28;20543;-65
2022/06/03 02:10:14;;;;;;;8.73;6.18;;;10.00;99.90;;;;;;5034132;28;20124;-65
2022/06/03 02:12:55;;;;;;;10.25;6.35;;;10.00;99.90;;;;;;5052134;28;20442;-65
2022/06/03 02:15:38;;;;;;;9.35;6.35;;;10.00;99.90;;;;;;5051092;28;20359;-65
2022/06/03 02:18:40;;;;;;;10.63;7.03;;;9.90;99.90;;;;;;5051237;28;20047;-65
2022/06/03 02:21:12;;;;;;;10.23;6.75;;;9.90;99.90;;;;;;5054340;28;20037;-65
2022/06/03 02:23:46;;;;;;;9.68;6.47;;;9.90;99.90;;;;;;5054736;28;20091;-65
2022/06/03 02:26:31;;;;;;;9.70;6.57;;;9.90;99.90;;;;;;5053955;28;20060;-65
2022/06/03 02:33:10;;;;;;;8.80;5.72;;;9.90;99.90;;;;;;5043766;28;20045;-65
2022/06/03 02:35:52;;;;;;;10.43;6.22;;;9.90;99.90;;;;;;5014085;28;20067;-65
2022/06/03 02:38:56;;;;;;;8.98;6.60;;;9.80;99.90;;;;;;4996592;28;20091;-65
2022/06/03 02:41:34;;;;;;;9.65;6.70;;;9.70;99.90;;;;;;5054040;28;20057;-65
2022/06/03 02:44:18;;;;;;;9.43;6.15;;;9.80;99.90;;;;;;5053663;28;20049;-65
2022/06/03 02:47:03;;;;;;;9.25;6.50;;;10.10;99.90;;;;;;5053466;28;20049;-65
2022/06/03 02:49:40;;;;;;;10.80;6.65;;;9.70;99.90;;;;;;5054424;28;20041;-65
2022/06/03 02:52:37;;;;;;;11.00;7.10;;;9.40;99.90;;;;;;5054076;28;20033;-65
2022/06/03 02:55:19;;;;;;;9.55;6.40;;;9.60;99.90;;;;;;5043119;28;20128;-65
2022/06/03 02:58:16;;;;;;;9.90;6.68;;;9.60;99.90;;;;;;5055366;28;20115;-65
2022/06/03 03:01:08;;;;;;;10.80;8.00;;;9.60;99.90;;;;;;5053540;28;20033;-65
2022/06/03 03:03:41;;;;;;;10.52;7.13;;;9.60;99.90;;;;;;5054032;28;20511;-65
2022/06/03 03:06:55;;;;;;;11.35;7.53;;;9.60;99.90;;;;;;5052672;28;20048;-65
2022/06/03 03:09:45;;;;;;;10.38;6.13;;;9.60;99.90;;;;;;4997217;28;20479;-65
2022/06/03 03:12:13;;;;;;;11.68;7.82;;;9.60;99.90;;;;;;5013080;28;20044;-65
2022/06/03 03:14:58;;;;;;;10.48;8.35;;;9.60;99.90;;;;;;5039587;28;20398;-65
2022/06/03 03:17:42;;;;;;;10.80;8.20;;;9.60;99.90;;;;;;5055088;28;20037;-65
2022/06/03 03:20:46;;;;;;;9.82;7.25;;;9.70;99.90;;;;;;5053369;28;20053;-65
2022/06/03 03:23:49;;;;;;;13.02;7.28;;;9.60;99.90;;;;;;5040357;28;20045;-65
2022/06/03 03:26:56;;;;;;;9.45;7.05;;;9.70;99.90;;;;;;5055007;28;20033;-65
2022/06/03 03:29:40;;;;;;;11.75;7.72;;;9.70;99.90;;;;;;5024861;28;20136;-65
2022/06/03 03:32:30;;;;;;;13.35;8.55;;;9.70;99.90;;;;;;5054176;28;20087;-65
2022/06/03 03:35:04;;;;;;;11.02;7.38;;;9.70;99.90;;;;;;5052008;28;20080;-65
2022/06/03 03:38:04;;;;;;;12.75;8.07;;;9.70;99.90;;;;;;5053384;28;20128;-65
2022/06/03 03:40:58;;;;;;;10.60;8.10;;;9.70;99.90;;;;;;5053335;28;20043;-65
2022/06/03 03:43:30;;;;;;;14.45;7.97;;;9.70;99.90;;;;;;5050922;28;20490;-65
2022/06/03 03:46:23;;;;;;;10.40;7.18;;;9.70;99.90;;;;;;5054074;28;20033;-65
2022/06/03 03:49:03;;;;;;;13.18;7.47;;;9.70;99.90;;;;;;5053164;28;20041;-65
2022/06/03 03:51:32;;;;;;;13.38;7.60;;;9.70;99.90;;;;;;5054290;28;20033;-65
2022/06/03 03:54:39;;;;;;;12.00;7.15;;;9.70;99.90;;;;;;5035963;28;20048;-65
2022/06/03 03:57:14;;;;;;;9.65;7.07;;;9.80;99.90;;;;;;5051810;28;20146;-64
2022/06/03 04:00:19;;;;;;;11.23;7.45;;;9.80;99.90;;;;;;5053486;28;20378;-65
2022/06/03 04:03:22;;;;;;;10.20;7.50;;;9.90;99.90;;;;;;5052063;28;20045;-64
2022/06/03 04:06:10;;;;;;;10.13;7.60;;;9.90;99.90;;;;;;5052607;28;20040;-64
2022/06/03 04:08:36;;;;;;;13.18;7.38;;;9.90;99.90;;;;;;5031026;28;20048;-64
2022/06/03 04:11:34;;;;;;;11.45;7.03;;;10.00;99.90;;;;;;5051733;28;21051;-65
2022/06/03 04:14:09;;;;;;;10.75;7.32;;;10.00;99.90;;;;;;5019526;28;20064;-65
2022/06/03 04:16:56;;;;;;;9.37;6.67;;;10.00;99.90;;;;;;5053361;28;20043;-65
2022/06/03 04:19:32;;;;;;;11.52;7.18;;;10.10;99.90;;;;;;5053538;28;20684;-64
2022/06/03 04:22:22;;;;;;;10.95;7.07;;;10.10;99.90;;;;;;5053181;28;20367;-65
2022/06/03 04:25:21;;;;;;;11.98;7.72;;;10.20;99.90;;;;;;5051445;28;20477;-65
2022/06/03 04:28:05;;;;;;;12.63;8.52;;;10.20;99.90;;;;;;5053512;28;20394;-65
2022/06/03 04:30:53;;;;;;;10.40;7.53;;;10.20;99.90;;;;;;5035093;28;20045;-65
2022/06/03 04:33:46;;;;;;;10.95;7.43;;;10.30;99.90;;;;;;5053413;28;20049;-65
2022/06/03 04:36:27;;;;;;;11.40;7.82;;;10.30;99.90;;;;;;5053214;28;20490;-65
2022/06/03 04:39:14;;;;;;;10.55;7.30;;;10.40;99.90;;;;;;5050818;28;20071;-64
2022/06/03 04:42:02;;;;;;;11.02;7.75;;;10.40;99.90;;;;;;5051687;28;20041;-65
2022/06/03 04:44:52;;;;;;;12.30;7.00;;;10.50;99.90;;;;;;5052016;28;20152;-65
2022/06/03 04:47:28;;;;;;;10.32;7.50;;;;;;;;;;5035739;28;20153;-65
2022/06/03 04:50:31;;;;;;;11.60;8.32;;;10.90;99.90;;;;;;5052817;28;20393;-65
2022/06/03 04:53:00;;;;;;;15.77;7.22;;;10.80;99.90;;;;;;5050768;28;20087;-65
2022/06/03 04:56:03;;;;;;;11.07;7.40;;;11.10;99.90;;;;;;5051964;28;20044;-65
2022/06/03 04:58:38;;;;;;;8.77;6.75;;;11.00;99.90;;;;;;5051951;28;20056;-65
2022/06/03 05:01:15;;;;;;;11.82;6.78;;;11.00;99.90;;;;;;5051355;28;20048;-65
2022/06/03 05:04:05;;;;;;;10.95;7.20;;;11.10;99.90;;;;;;5051532;28;20049;-65
2022/06/03 05:06:52;;;;;;;13.25;7.45;;;11.20;99.90;;;;;;5051124;28;20033;-65
2022/06/03 05:09:56;;;;;;;11.65;7.20;;;11.40;99.90;;;;;;5051878;28;20474;-65
2022/06/03 05:12:52;;;;;;;10.65;7.32;;;11.50;99.90;;;;;;5053105;28;20056;-64
2022/06/03 05:15:47;;;;;;;10.80;7.40;;;11.60;99.90;;;;;;5051785;28;20045;-65
2022/06/03 05:18:24;;;;;;;10.50;7.38;;;11.70;99.90;;;;;;5052386;28;20091;-65
2022/06/03 05:21:14;;;;;;;9.65;7.20;;;11.90;99.90;;;;;;5033618;28;20041;-64
2022/06/03 05:23:45;;;;;;;12.65;6.90;;;;;;;;;;5051382;28;20037;-64
2022/06/03 05:26:21;;;;;;;12.07;6.90;;;12.10;99.90;;;;;;5051143;28;20044;-64
2022/06/03 05:29:11;;;;;;;12.50;7.70;;;12.40;99.90;;;;;;5051412;28;20048;-64
2022/06/03 05:31:40;;;;;;;10.38;6.68;;;;;;;;;;5052584;28;20044;-64
2022/06/03 05:34:26;;;;;;;9.98;6.35;;;12.30;99.90;;;;;;5050021;28;20055;-64
2022/06/03 05:37:13;;;;;;;12.35;6.85;;;12.50;99.90;;;;;;5051960;28;20043;-64
2022/06/03 05:39:54;;;;;;;10.93;7.05;;;12.60;99.90;;;;;;5052634;28;20083;-64
2022/06/03 05:42:37;;;;;;;14.40;7.28;;;12.70;99.90;;;;;;5050683;28;20124;-65
2022/06/03 05:45:32;;;;;;;15.48;7.22;;;12.80;99.90;;;;;;5051822;28;20632;-65
2022/06/03 05:47:58;;;;;;;14.52;7.63;;;12.90;99.90;;;;;;5050986;28;20045;-64
2022/06/03 05:50:49;;;;;;;17.67;7.68;;;12.90;99.90;;;;;;5051303;28;20552;-65
2022/06/03 05:53:26;;;;;;;16.13;6.90;;;;;;;;;;5033592;28;20040;-64
2022/06/03 05:56:11;;;;;;;11.40;5.90;;;;;;;;;;5050869;28;20075;-64
2022/06/03 05:58:55;;;;;;;13.93;5.82;;;;;;;;;;5051306;28;20041;-64
2022/06/03 06:01:30;;;;;;;11.75;6.32;;;;;;;;;;5052057;28;20506;-64
2022/06/03 06:03:56;;;;;;;;;;;;;;;;;;5049920;28;20125;-64
2022/06/03 06:06:35;;;;;;;10.15;6.07;;;13.50;99.90;;;;;;5034246;28;20039;-64
2022/06/03 06:09:31;;;;;;;9.68;6.00;;;13.70;99.90;;;;;;5032981;28;20044;-65
2022/06/03 06:12:11;;;;;;;8.18;5.07;;;;;;;;;;5051626;28;20044;-65
2022/06/03 06:14:49;;;;;;;9.00;4.85;;;13.80;99.90;;;;;;5051984;28;20120;-64
2022/06/03 06:17:48;;;;;;;9.35;3.78;;;13.80;99.90;;;;;;5051509;28;20072;-65
2022/06/03 06:21:19;;;;;;;7.45;4.78;;;13.60;99.90;;;;;;5051955;28;20065;-64
2022/06/03 06:23:51;;;;;;;6.55;3.80;;;13.80;99.90;;;;;;5009056;28;20561;-64
2022/06/03 06:26:41;;;;;;;7.63;4.25;;;14.00;99.90;;;;;;5034421;28;20084;-65
2022/06/03 06:29:40;;;;;;;9.90;5.25;;;14.10;99.90;;;;;;5050182;28;20412;-65
2022/06/03 06:32:52;;;;;;;7.00;4.32;;;14.20;99.90;;;;;;5032559;28;20037;-65
2022/06/03 06:35:36;;;;;;;6.22;3.65;;;14.30;99.90;;;;;;5051928;28;20033;-64
2022/06/03 06:38:08;;;;;;;6.63;3.97;;;;;;;;;;5050497;28;20531;-65
2022/06/03 06:40:54;;;;;;;6.10;3.22;;;;;;;;;;5051806;28;20041;-64
2022/06/03 06:43:39;;;;;;;5.90;3.22;;;;;;;;;;5050473;28;20045;-64
2022/06/03 06:46:09;;;;;;;7.85;3.70;;;;;;;;;;5032690;28;20503;-65
2022/06/03 06:48:50;;;;;;;6.90;3.50;;;;;;;;;;5050554;28;20045;-65
2022/06/03 06:51:34;;;;;;;5.85;2.97;;;;;;;;;;5049672;28;20482;-65
2022/06/03 06:54:08;;;;;;;6.93;3.05;;;;;;;;;;5050157;28;20045;-64
2022/06/03 06:56:47;;;;;;;6.90;3.05;;;;;;;;;;5050752;28;20560;-64
2022/06/03 06:59:20;;;;;;;6.05;3.13;;;;;;;;;;5049498;28;20398;-65
2022/06/03 07:01:53;;;;;;;5.72;3.45;;;;;;;;;;5050061;28;20048;-64
2022/06/03 07:04:24;;;;;;;7.38;3.08;;;15.10;99.90;;;;;;5053529;28;20037;-65
2022/06/03 07:07:12;;;;;;;7.43;3.50;;;15.30;99.90;;;;;;5053906;28;20528;-65
2022/06/03 07:10:08;;;;;;;7.10;2.95;;;15.40;99.90;;;;;;5055484;28;20044;-64
2022/06/03 07:12:56;;;;;;;5.75;3.08;;;15.40;99.90;;;;;;5051802;28;20045;-65
2022/06/03 07:15:33;;;;;;;6.18;2.92;;;15.50;99.90;;;;;;5053855;28;20045;-64
2022/06/03 07:21:18;;;;;;;5.22;2.97;;;15.60;99.90;;;;;;5033124;28;20205;-64
2022/06/03 07:23:50;;;;;;;6.15;3.35;;;15.90;99.90;;;;;;5035713;28;20041;-65
2022/06/03 07:26:59;;;;;;;6.85;2.83;;;15.90;99.90;;;;;;5033638;28;20045;-65
2022/06/03 07:29:47;;;;;;;7.47;2.97;;;16.20;99.90;;;;;;4983085;28;20053;-65
2022/06/03 07:32:19;;;;;;;5.65;2.65;;;15.90;99.90;;;;;;4977452;28;20049;-65
2022/06/03 07:35:04;;;;;;;5.80;3.10;;;;;;;;;;5026817;28;20041;-65
2022/06/03 07:37:49;;;;;;;6.80;3.17;;;;;;;;;;5051201;28;20041;-65
2022/06/03 07:40:18;;;;;;;5.57;2.78;;;;;;;;;;5050836;28;20041;-65
2022/06/03 07:42:50;;;;;;;4.28;2.60;;;;;;;;;;5037067;28;20064;-64
2022/06/03 07:45:26;;;;;;;6.22;3.10;;;;;;;;;;5051090;28;20051;-65
2022/06/03 07:47:53;;;;;;;6.07;2.75;;;;;;;;;;5034196;28;20402;-65
2022/06/03 07:50:21;;;;;;;7.15;2.85;;;;;;;;;;5032161;28;20044;-65
2022/06/03 07:52:54;;;;;;;5.10;2.80;;;;;;;;;;5029832;28;20045;-65
2022/06/03 07:55:22;;;;;;;5.95;2.80;;;;;;;;;;5032573;28;20489;-65
2022/06/03 07:57:49;;;;;;;4.57;2.30;;;;;;;;;;5030047;28;20042;-65
2022/06/03 08:00:17;;;;;;;4.80;2.35;;;;;;;;;;5030507;28;20045;-65
2022/06/03 08:02:43;;;;;;;6.07;2.70;;;;;;;;;;5029516;28;20368;-65
2022/06/03 08:05:17;;;;;;;10.05;3.13;;;;;;;;;;5013498;28;20491;-65
2022/06/03 08:13:42;;;;;;;5.13;2.53;;;;;;;;;;5011865;28;20502;-65
2022/06/03 08:16:13;;;;;;;4.70;2.33;;;16.60;99.90;;;;;;5029532;28;20041;-65
2022/06/03 08:18:43;;;;;;;5.20;2.33;;;16.40;99.90;;;;;;5048752;28;20049;-65
2022/06/03 08:21:14;;;;;;;5.32;2.45;;;16.80;99.90;;;;;;5045131;28;20045;-65
2022/06/03 08:23:40;;;;;;;4.10;2.10;;;16.80;99.90;;;;;;5046135;28;20132;-65
2022/06/03 08:26:13;;;;;;;4.10;1.95;;;17.00;99.90;;;;;;5038975;28;20167;-65
2022/06/03 08:28:44;;;;;;;5.10;2.30;;;;;;;;;;5033165;28;20086;-65
2022/06/03 08:31:10;;;;;;;6.07;2.40;;;;;;;;;;5045462;28;20345;-65
2022/06/03 08:33:36;;;;;;;5.70;2.47;;;;;;;;;;5047918;28;20433;-65
2022/06/03 08:36:02;;;;;;;3.97;2.08;;;;;;;;;;5049193;28;20041;-64
2022/06/03 08:38:36;;;;;;;7.57;2.70;;;17.30;99.90;;;;;;5049390;28;20717;-65
2022/06/03 08:41:05;;;;;;;8.05;2.15;;;17.90;99.90;;;;;;5050160;28;20056;-66
2022/06/03 08:43:39;;;;;;;4.90;2.40;;;17.00;99.90;;;;;;5049757;28;20123;-65
2022/06/03 08:46:17;;;;;;;4.38;2.20;;;17.40;99.90;;;;;;5036707;28;20038;-64
2022/06/03 08:48:45;;;;;;;6.07;2.47;;;;;;;;;;5038260;28;20663;-65
2022/06/03 08:51:34;;;;;;;3.90;1.65;;;;;;;;;;5046341;28;20098;-65
2022/06/03 08:54:04;;;;;;;5.20;2.53;;;;;;;;;;5027445;28;20055;-65
2022/06/03 08:56:32;;;;;;;4.40;2.28;;;;;;;;;;5047815;28;20406;-65
2022/06/03 08:59:29;;;;;;;5.03;2.28;;;18.00;99.90;;;;;;5047267;28;20041;-65
2022/06/03 09:02:12;;;;;;;4.75;2.60;;;17.90;99.90;;;;;;5044648;28;20136;-62
2022/06/03 09:04:48;;;;;;;4.97;2.25;;;;;;;;;;5033786;28;20072;-65
2022/06/03 09:07:30;;;;;;;4.90;2.28;;;18.00;99.90;;;;;;5051785;28;20043;-65
2022/06/03 09:10:26;;;;;;;6.10;2.05;;;17.90;99.90;;;;;;5051354;28;20045;-63
2022/06/03 09:13:04;;;;;;;4.10;1.95;;;18.20;99.90;;;;;;5051861;28;20033;-65
2022/06/03 09:15:38;;;;;;;4.13;2.03;;;18.20;99.90;;;;;;5046488;28;20032;-66
2022/06/03 09:18:13;;;;;;;6.53;2.15;;;18.20;99.90;;;;;;5033604;28;20048;-66
2022/06/03 09:21:00;;;;;;;3.83;1.77;;;;;;;;;;5048495;28;20049;-66
2022/06/03 09:23:27;;;;;;;5.03;2.22;;;;;;;;;;5033992;28;20041;-66
2022/06/03 09:25:56;;;;;;;4.00;1.90;;;;;;;;;;5039685;28;20033;-65
2022/06/03 09:28:31;;;;;;;4.72;1.90;;;;;;;;;;5049697;28;20029;-66
2022/06/03 09:30:58;;;;;;;5.88;2.28;;;;;;;;;;5050910;28;20045;-66
2022/06/03 09:33:25;;;;;;;4.72;2.08;;;;;;;;;;5050554;28;20131;-66
2022/06/03 09:35:53;;;;;;;5.53;2.00;;;;;;;;;;5051915;28;20044;-66
2022/06/03 09:38:20;;;;;;;7.72;1.77;;;;;;;;;;5051495;28;20091;-66
2022/06/03 09:40:47;;;;;;;4.05;2.00;;;;;;;;;;5050326;28;20079;-66
2022/06/03 09:43:22;;;;;;;4.30;1.85;;;;;;;;;;5044728;28;20505;-66
2022/06/03 09:45:50;;;;;;;4.35;1.85;;;;;;;;;;5046560;28;20037;-66
2022/06/03 09:48:20;;;;;;;5.40;2.50;;;;;;;;;;5051091;28;20375;-67
2022/06/03 09:50:47;;;;;;;4.47;2.38;;;;;;;;;;5049472;28;20445;-66
2022/06/03 09:53:13;;;;;;;6.78;2.22;;;;;;;;;;5048993;28;20090;-67
2022/06/03 09:55:41;;;;;;;5.50;2.58;;;;;;;;;;5037487;28;20131;-68
2022/06/03 09:58:09;;;;;;;4.80;2.20;;;;;;;;;;5033376;28;20491;-68
2022/06/03 10:00:42;;;;;;;4.38;1.70;;;;;;;;;;5043778;28;20041;-63
2022/06/03 10:03:09;;;;;;;4.20;1.98;;;;;;;;;;5043500;28;20045;-68
2022/06/03 10:05:35;;;;;;;4.70;1.92;;;;;;;;;;5037019;28;20127;-68
2022/06/03 10:08:02;;;;;;;4.88;2.00;;;;;;;;;;5046201;28;20068;-68
2022/06/03 10:13:13;;;;;;;4.65;1.98;;;19.30;98.60;;;;;;5038442;28;20041;-68
2022/06/03 10:15:44;;;;;;;4.72;2.13;;;19.20;98.70;;;;;;5041375;28;20116;-68
2022/06/03 10:18:22;;;;;;;6.32;2.30;;;19.10;99.90;;;;;;5044628;28;20129;-68
2022/06/03 10:20:49;;;;;;;3.90;2.00;;;;;;;;;;5050397;28;20053;-67
2022/06/03 10:23:18;;;;;;;5.00;1.70;;;19.10;99.90;;;;;;5034353;28;20040;-68
2022/06/03 10:25:46;;;;;;;4.57;1.70;;;19.10;99.90;;;;;;5031988;28;20171;-67
2022/06/03 10:28:15;;;;;;;6.30;2.08;;;19.10;99.90;;;;;;5045901;28;20040;-67
2022/06/03 10:30:42;;;;;;;4.78;1.88;;;;;;;;;;5050718;28;20102;-67
2022/06/03 10:33:21;;;;;;;4.05;1.98;;;19.10;99.90;;;;;;5039788;28;20040;-67
2022/06/03 10:35:50;;;;;;;3.83;1.90;;;19.20;99.90;;;;;;5045458;28;20096;-67
2022/06/03 10:38:19;;;;;;;5.43;2.10;;;19.30;99.90;;;;;;5041487;28;20033;-67
2022/06/03 10:40:52;;;;;;;4.80;2.30;;;19.40;99.90;;;;;;5035819;28;20040;-67
2022/06/03 10:43:30;;;;;;;5.38;2.30;;;19.60;99.90;;;;;;5048737;28;20084;-67
2022/06/03 10:46:12;;;;;;;4.68;2.25;;;19.50;99.50;;;;;;5053953;28;20386;-67
2022/06/03 10:48:38;;;;;;;5.47;2.60;;;19.50;97.40;;;;;;5055033;28;20061;-68
2022/06/03 11:01:06;;;;;;;4.75;2.22;;;19.50;99.90;;;;;;5053130;28;20094;-68
2022/06/03 11:02:38;;;;;;;6.20;3.13;;;19.40;98.90;;;;;;5034255;28;20051;-66
2022/06/03 11:05:08;;;;;;;4.65;2.30;;;19.60;98.50;;;;;;5020298;28;20033;-66
2022/06/03 11:07:36;;;;;;;6.28;3.08;;;19.60;99.90;;;;;;5018989;28;20479;-67
2022/06/03 11:10:09;;;;;;;7.40;3.25;;;19.70;99.90;;;;;;5033521;28;20045;-67
2022/06/03 11:12:35;;;;;;;5.28;3.13;;;19.80;99.90;;;;;;5045931;28;20500;-65
2022/06/03 11:15:21;;;;;;;6.25;2.55;;;19.70;99.90;;;;;;5034674;28;20115;-66
2022/06/03 11:17:47;;;;;;;5.30;2.90;;;19.70;99.90;;;;;;5046076;28;20048;-66
2022/06/03 11:20:35;;;;;;;7.13;2.97;;;19.70;99.90;;;;;;5053798;28;20064;-66
2022/06/03 11:23:03;;;;;;;4.20;2.17;;;20.10;99.90;;;;;;5033336;28;20053;-66
2022/06/03 11:25:31;;;;;;;4.10;2.40;;;19.90;99.90;;;;;;5033265;28;20548;-66
2022/06/03 11:28:02;;;;;;;6.78;2.83;;;19.80;99.10;;;;;;5033720;28;20045;-66
2022/06/03 11:30:39;;;;;;;6.05;2.47;;;19.90;98.50;;;;;;5035347;28;20048;-66
2022/06/03 11:33:23;;;;;;;5.47;2.47;;;19.70;99.90;;;;;;5036182;28;20044;-66
2022/06/03 11:35:56;;;;;;;7.65;3.40;;;19.80;99.90;;;;;;5054625;28;20040;-66
2022/06/03 11:38:29;;;;;;;6.18;3.00;;;19.90;99.90;;;;;;5055012;28;20390;-67
2022/06/03 11:41:00;;;;;;;6.32;3.72;;;20.10;99.90;;;;;;5052463;28;20067;-67
2022/06/03 11:43:51;;;;;;;8.02;3.53;;;20.30;99.90;;;;;;5035637;28;20049;-67
2022/06/03 11:46:25;;;;;;;4.97;2.58;;;20.40;99.90;;;;;;5044095;28;20063;-65
2022/06/03 11:48:52;;;;;;;8.63;3.13;;;;;;;;;;5052045;28;20102;-63
2022/06/03 11:51:19;;;;;;;6.28;3.03;;;;;;;;;;5053268;28;20052;-65
2022/06/03 11:53:48;;;;;;;6.50;2.67;;;;;;;;;;5053804;28;20048;-65
2022/06/03 11:56:17;;;;;;;6.85;3.45;;;20.10;99.90;;;;;;5036689;28;20041;-65
2022/06/03 11:58:43;;;;;;;7.22;2.42;;;;;;;;;;5054463;28;20120;-64
2022/06/03 12:01:16;;;;;;;7.93;3.00;;;19.70;99.90;;;;;;5042251;28;20053;-65
2022/06/03 12:04:10;;;;;;;4.97;2.65;;;19.50;99.90;;;;;;5033334;28;20041;-65
2022/06/03 12:06:36;;;;;;;6.28;2.40;;;;;;;;;;5034500;28;20041;-64
2022/06/03 12:09:36;;;;;;;5.72;2.15;;;19.40;99.90;;;;;;5050163;28;20744;-65
2022/06/03 12:15:26;;;;;;;5.03;2.33;;;19.30;99.90;;;;;;5053502;28;20762;-64
2022/06/03 12:17:52;;;;;;;5.57;2.67;;;;;;;;;;5047763;28;20403;-64
2022/06/03 12:20:30;;;;;;;7.40;2.70;;;19.60;99.90;;;;;;5050773;28;20057;-63
2022/06/03 12:22:57;;;;;;;5.55;2.17;;;19.70;99.90;;;;;;5038304;28;20501;-64
2022/06/03 12:25:40;;;;;;;5.03;2.00;;;19.80;99.90;;;;;;5053706;28;20033;-63
2022/06/03 12:28:15;;;;;;;7.72;2.42;;;19.80;99.90;;;;;;5040297;28;20042;-63
2022/06/03 12:30:51;;;;;;;5.72;2.10;;;19.90;99.90;;;;;;5048151;28;20037;-64
2022/06/03 12:33:22;;;;;;;5.15;2.10;;;20.00;99.90;;;;;;5052140;28;20056;-63
2022/06/03 12:35:48;;;;;;;6.32;2.40;;;20.10;99.90;;;;;;5050856;28;20045;-64
2022/06/03 12:38:20;;;;;;;5.68;2.22;;;19.90;99.90;;;;;;5052360;28;20389;-64
2022/06/03 12:41:05;;;;;;;4.65;2.03;;;20.10;99.90;;;;;;5053621;28;20041;-64
2022/06/03 12:43:46;;;;;;;6.25;2.10;;;20.10;99.90;;;;;;5053092;28;20052;-64
2022/06/03 12:46:40;;;;;;;3.78;2.05;;;20.30;99.90;;;;;;5051834;28;20076;-64
2022/06/03 12:49:37;;;;;;;4.10;1.92;;;20.30;99.90;;;;;;5051806;28;20099;-64
2022/06/03 12:52:08;;;;;;;4.18;1.58;;;20.20;99.90;;;;;;5028759;28;20053;-64
2022/06/03 12:54:55;;;;;;;4.07;1.63;;;20.30;99.90;;;;;;5048775;28;20398;-64
2022/06/03 12:57:48;;;;;;;8.00;2.25;;;20.30;99.90;;;;;;5050433;28;20056;-64
2022/06/03 13:00:24;;;;;;;3.67;1.38;;;20.30;99.90;;;;;;5052052;28;20128;-64
2022/06/03 13:03:16;;;;;;;3.10;1.30;;;20.20;99.90;;;;;;5047687;28;20099;-64
2022/06/03 13:05:46;;;;;;;4.63;1.70;;;;;;;;;;5024132;28;20049;-63
2022/06/03 13:08:27;;;;;;;5.00;1.83;;;20.40;99.90;;;;;;5051646;28;20394;-62
2022/06/03 13:10:53;;;;;;;6.20;1.75;;;;;;;;;;5032628;28;20048;-64
2022/06/03 13:13:28;;;;;;;6.20;2.17;;;20.20;99.90;;;;;;5048683;28;20083;-63
2022/06/03 13:15:54;;;;;;;4.70;1.70;;;;;;;;;;5031111;28;20056;-64
2022/06/03 13:18:35;;;;;;;6.07;1.92;;;20.30;99.90;;;;;;5032952;28;20080;-63
2022/06/03 13:21:01;;;;;;;4.13;1.73;;;;;;;;;;5047523;28;20110;-64
2022/06/03 13:23:53;;;;;;;6.57;2.13;;;;;;;;;;5050934;28;20049;-62
2022/06/03 13:26:27;;;;;;;5.35;1.80;;;;;;;;;;5049831;28;20079;-62
2022/06/03 13:28:53;;;;;;;5.03;1.35;;;;;;;;;;5046167;28;20049;-62
2022/06/03 13:31:39;;;;;;;4.47;1.45;;;;;;;;;;5051141;28;20045;-63
2022/06/03 13:34:08;;;;;;;3.85;1.45;;;20.10;99.90;;;;;;5050267;28;20397;-62
2022/06/03 13:36:52;;;;;;;5.15;1.58;;;20.10;99.90;;;;;;5051651;28;20045;-62
2022/06/03 13:39:24;;;;;;;3.78;1.30;;;;;;;;;;5050579;28;20049;-63
2022/06/03 13:45:01;;;;;;;3.83;1.30;;;19.70;99.90;;;;;;5044608;28;20124;-62
2022/06/03 13:47:36;;;;;;;2.58;1.20;;;;;;;;;;5033912;28;20029;-63
2022/06/03 13:50:05;;;;;;;5.13;1.30;;;;;;;;;;5051733;28;20164;-62
2022/06/03 13:52:33;;;;;;;5.20;1.38;;;;;;;;;;5022474;28;20046;-62
2022/06/03 13:55:18;;;;;;;4.93;1.38;;;19.70;99.90;;;;;;5048775;28;20048;-62
2022/06/03 13:58:09;;;;;;;1.73;0.93;;;19.50;99.90;;;;;;5010313;28;20107;-62
2022/06/03 14:00:37;;;;;;;3.60;1.20;;;19.50;99.90;;;;;;5017148;28;20057;-62
2022/06/03 14:03:03;;;;;;;1.77;0.93;;;;;;;;;;5046383;28;20441;-61
2022/06/03 14:05:31;;;;;;;3.35;1.25;;;19.50;99.90;;;;;;5035501;28;20087;-61
2022/06/03 14:08:04;;;;;;;4.93;0.93;;;19.80;99.90;;;;;;5031658;28;20049;-62
2022/06/03 14:10:43;;;;;;;5.45;1.42;;;;;;;;;;5040366;28;20037;-60
2022/06/03 14:13:15;;;;;;;5.70;1.52;;;;;;;;;;5038163;28;20489;-61
2022/06/03 14:16:08;;;;;;;3.80;1.20;;;;;;;;;;5040929;28;20486;-60
2022/06/03 14:18:47;;;;;;;4.05;1.10;;;;;;;;;;5051207;28;20409;-61
2022/06/03 14:21:19;;;;;;;4.43;1.33;;;;;;;;;;5052221;28;20044;-61
2022/06/03 14:23:45;;;;;;;2.30;0.90;;;;;;;;;;5053107;28;20048;-61
2022/06/03 14:26:17;;;;;;;3.60;1.08;;;;;;;;;;5051945;28;20049;-61
2022/06/03 14:28:55;;;;;;;1.85;0.90;;;20.20;97.20;;;;;;5042293;28;20041;-61
2022/06/03 14:31:34;;;;;;;6.40;1.25;;;19.90;96.50;;;;;;5032080;28;20107;-61
2022/06/03 14:34:29;;;;;;;3.65;1.38;;;19.80;99.90;;;;;;5040215;28;20574;-61
2022/06/03 14:36:58;;;;;;;2.22;0.88;;;19.90;98.10;;;;;;5050940;28;20045;-60
2022/06/03 14:39:28;;;;;;;3.38;1.40;;;19.80;99.60;;;;;;5053342;28;20049;-61
2022/06/03 14:42:00;;;;;;;2.97;1.05;;;19.70;99.90;;;;;;5034543;28;20055;-61
2022/06/03 14:44:28;;;;;;;4.40;1.42;;;19.80;99.90;;;;;;5018799;28;20045;-61
2022/06/03 14:46:57;;;;;;;4.45;1.50;;;20.10;99.90;;;;;;5044892;28;20045;-61
2022/06/03 14:49:30;;;;;;;3.92;1.25;;;;;;;;;;5036220;28;20041;-61
2022/06/03 14:52:05;;;;;;;4.90;1.50;;;19.60;99.90;;;;;;5048941;28;20045;-61
2022/06/03 14:54:39;;;;;;;6.90;1.65;;;19.70;98.50;;;;;;5051793;28;20045;-61